Time;durP1;ratioP1;P1;durP2;ratioP2;P2;SDS_P1;SDS_P2;PMS_P1;PMS_P2;Temp;Humidity;BMP_temperature;BMP_pressure;BME280_temperature;BME280_humidity;BME280_pressure;Samples;Min_cycle;Max_cycle;Signal;HPM_P1;HPM_P2
2022/06/07 00:00:00;;;;;;;9.30;7.82;;;;;;;19.30;100.00;101162.97;5115301;28;20054;-74
2022/06/07 00:02:46;;;;;;;9.48;7.20;;;;;;;19.42;100.00;101167.72;5115407;28;20092;-73
2022/06/07 00:05:32;;;;;;;10.80;8.50;;;;;;;18.74;100.00;101161.97;5114791;28;20024;-73
2022/06/07 00:08:18;;;;;;;11.40;9.75;;;;;;;18.36;100.00;101166.25;5115316;28;20037;-74
2022/06/07 00:11:04;;;;;;;15.77;10.15;;;;;;;18.65;100.00;101165.88;5115032;28;20088;-74
2022/06/07 00:13:50;;;;;;;13.43;9.93;;;;;;;18.78;100.00;101158.25;5114572;28;20024;-73
2022/06/07 00:16:36;;;;;;;19.55;10.77;;;;;;;18.57;100.00;101152.06;5115404;28;20537;-74
2022/06/07 00:19:23;;;;;;;15.40;11.45;;;;;;;18.17;100.00;101148.50;5114956;28;20073;-74
2022/06/07 00:22:10;;;;;;;17.35;13.35;;;;;;;18.54;100.00;101143.41;5100209;28;20080;-75
2022/06/07 00:24:56;;;;;;;16.35;13.65;;;;;;;18.38;100.00;101142.31;5098891;28;20047;-74
2022/06/07 00:27:42;;;;;;;19.23;14.68;;;;;;;18.43;100.00;101135.03;5113363;28;20027;-74
2022/06/07 00:30:30;;;;;;;24.60;15.55;;;;;;;18.53;100.00;101136.38;5113733;28;20020;-73
2022/06/07 00:33:16;;;;;;;19.63;15.48;;;;;;;18.35;100.00;101140.66;5100255;28;20034;-74
2022/06/07 00:36:02;;;;;;;23.05;16.58;;;;;;;18.33;100.00;101141.63;5098319;28;20019;-73
2022/06/07 00:38:48;;;;;;;21.13;16.63;;;;;;;18.58;100.00;101143.19;5114475;28;20047;-75
2022/06/07 00:41:34;;;;;;;19.90;15.98;;;;;;;18.64;100.00;101139.41;5113686;28;20019;-74
2022/06/07 00:44:37;;;;;;;18.67;14.65;;;;;;;18.43;100.00;101135.03;5100270;28;20034;-75
2022/06/07 00:47:26;;;;;;;17.60;15.07;;;;;;;18.71;100.00;101131.13;5114528;28;20028;-74
2022/06/07 00:50:22;;;;;;;17.52;13.55;;;;;;;18.73;100.00;101129.25;5115062;28;20024;-75
2022/06/07 00:53:35;;;;;;;16.52;13.20;;;;;;;18.97;100.00;101128.16;5113329;28;20024;-74
2022/06/07 00:56:21;;;;;;;17.10;13.90;;;;;;;19.14;100.00;101128.22;5103954;28;20028;-74
2022/06/07 00:59:06;;;;;;;19.35;14.20;;;;;;;19.30;100.00;101124.91;5118931;28;20106;-74
2022/06/07 01:01:52;;;;;;;13.93;12.05;;;;;;;19.00;100.00;101122.69;5118301;28;20016;-75
2022/06/07 01:04:39;;;;;;;17.52;13.07;;;;;;;19.20;100.00;101112.03;5103175;28;20056;-74
2022/06/07 01:10:44;;;;;;;23.17;12.93;;;;;;;19.26;100.00;101115.34;5118848;28;20360;-74
2022/06/07 01:13:32;;;;;;;34.00;12.10;;;;;;;19.36;100.00;101124.63;5117739;28;20372;-75
2022/06/07 01:16:18;;;;;;;13.63;11.40;;;;;;;19.44;100.00;101119.81;5117340;28;20352;-74
2022/06/07 01:19:03;;;;;;;15.93;10.63;;;;;;;19.35;100.00;101128.19;5118295;28;20076;-74
2022/06/07 01:21:49;;;;;;;14.70;10.98;;;;;;;19.25;100.00;101119.78;5118723;28;20118;-74
2022/06/07 01:24:36;;;;;;;13.57;10.27;;;;;;;19.26;100.00;101121.53;5116950;28;20412;-74
2022/06/07 01:27:21;;;;;;;12.68;10.25;;;;;;;19.40;100.00;101118.25;5118809;28;20455;-74
2022/06/07 01:30:08;;;;;;;12.68;9.75;;;;;;;19.65;100.00;101110.81;5116682;28;20035;-75
2022/06/07 01:32:54;;;;;;;13.57;10.82;;;;;;;19.34;100.00;101113.19;5118208;28;20035;-74
2022/06/07 01:35:39;;;;;;;15.13;10.90;;;;;;;19.65;100.00;101103.69;5102291;28;20467;-74
2022/06/07 01:38:25;;;;;;;15.48;10.38;;;;;;;19.52;100.00;101104.38;5116874;28;20020;-73
2022/06/07 01:44:16;;;;;;;27.05;10.73;;;;;;;19.52;100.00;101115.84;5117141;28;20031;-74
2022/06/07 01:47:03;;;;;;;15.63;10.48;;;;;;;19.57;100.00;101110.31;5118492;28;20015;-75
2022/06/07 01:49:49;;;;;;;12.65;10.30;;;;;;;19.40;100.00;101113.78;5117791;28;20019;-74
2022/06/07 01:52:36;;;;;;;12.27;9.35;;;;;;;19.53;100.00;101114.06;5116695;28;20020;-74
2022/06/07 01:55:22;;;;;;;12.32;9.48;;;;;;;19.22;100.00;101115.44;5117582;28;20517;-73
2022/06/07 01:58:08;;;;;;;13.23;9.82;;;;;;;19.03;100.00;101111.94;5117834;28;20020;-74
2022/06/07 02:00:54;;;;;;;15.63;9.93;;;;;;;19.22;100.00;101110.13;5117002;28;20024;-74
2022/06/07 02:03:40;;;;;;;11.38;9.48;;;;;;;19.50;100.00;101101.78;5117443;28;20121;-75
2022/06/07 02:06:26;;;;;;;12.90;9.30;;;;;;;19.08;100.00;101107.28;5116024;28;20199;-73
2022/06/07 02:09:12;;;;;;;15.48;10.50;;;;;;;19.15;100.00;101122.00;5102556;28;20046;-73
2022/06/07 02:11:59;;;;;;;12.55;10.57;;;;;;;19.29;100.00;101113.41;5117123;28;20429;-74
2022/06/07 02:14:44;;;;;;;14.30;10.38;;;;;;;19.18;100.00;101111.22;5117203;28;20023;-74
2022/06/07 02:17:30;;;;;;;16.27;10.07;;;;;;;19.21;100.00;101115.56;5116390;28;20020;-74
2022/06/07 02:20:16;;;;;;;12.27;10.00;;;;;;;19.46;100.00;101109.97;5117160;28;20420;-74
2022/06/07 02:23:02;;;;;;;11.63;9.82;;;;;;;19.27;100.00;101112.63;5117052;28;20028;-74
2022/06/07 02:25:52;;;;;;;14.77;10.20;;;;;;;19.32;100.00;101107.97;5101960;28;20083;-74
2022/06/07 02:28:42;;;;;;;10.43;9.32;;;;;;;19.33;100.00;101114.16;5116239;28;20432;-74
2022/06/07 02:31:30;;;;;;;11.02;9.60;;;;;;;18.76;100.00;101112.31;5116758;28;20100;-73
2022/06/07 02:34:18;;;;;;;12.90;9.32;;;;;;;18.85;100.00;101111.91;5116973;28;20391;-73
2022/06/07 02:37:05;;;;;;;14.40;10.15;;;;;;;18.92;100.00;101105.38;5116662;28;20035;-73
2022/06/07 02:39:53;;;;;;;13.05;10.35;;;;;;;18.96;100.00;101120.25;5115799;28;20073;-74
2022/06/07 02:42:42;;;;;;;12.15;10.00;;;;;;;19.35;100.00;101105.16;5115162;28;20108;-74
2022/06/07 02:45:28;;;;;;;12.90;10.25;;;;;;;19.38;100.00;101118.31;5116323;28;20061;-74
2022/06/07 02:48:14;;;;;;;13.77;10.38;;;;;;;19.25;100.00;101118.94;5115519;28;20106;-74
2022/06/07 02:51:00;;;;;;;10.73;9.63;;;;;;;19.28;100.00;101124.13;5116768;28;20123;-74
2022/06/07 02:53:46;;;;;;;12.93;9.73;;;;;;;19.11;100.00;101123.09;5116782;28;20034;-74
2022/06/07 02:56:32;;;;;;;11.75;8.85;;;;;;;18.91;100.00;101130.22;5116791;28;20106;-73
2022/06/07 02:59:18;;;;;;;14.52;9.38;;;;;;;19.02;100.00;101125.28;5101887;28;20070;-74
2022/06/07 03:02:05;;;;;;;10.55;8.70;;;;;;;18.89;100.00;101124.97;5116827;28;20027;-74
2022/06/07 03:04:50;;;;;;;9.52;8.45;;;;;;;18.36;100.00;101118.50;5116152;28;20034;-74
2022/06/07 03:07:38;;;;;;;10.77;8.18;;;;;;;18.27;100.00;101112.69;5116285;28;20027;-73
2022/06/07 03:10:24;;;;;;;11.23;8.30;;;;;;;18.51;100.00;101119.63;5102125;28;20084;-76
2022/06/07 03:13:10;;;;;;;8.57;7.68;;;;;;;18.40;100.00;101122.75;5116099;28;20422;-76
2022/06/07 03:15:57;;;;;;;13.85;8.80;;;;;;;18.06;100.00;101122.44;5116891;28;20455;-75
2022/06/07 03:18:42;;;;;;;12.07;8.55;;;;;;;18.12;100.00;101130.13;5117449;28;20138;-75
2022/06/07 03:21:28;;;;;;;12.02;7.93;;;;;;;17.90;100.00;101128.41;5118755;28;20035;-75
2022/06/07 03:24:14;;;;;;;12.27;8.63;;;;;;;17.80;100.00;101127.09;5116954;28;20095;-74
2022/06/07 03:27:00;;;;;;;12.48;8.73;;;;;;;18.19;100.00;101120.13;5116164;28;20027;-76
2022/06/07 03:29:46;;;;;;;14.00;9.13;;;;;;;18.70;100.00;101123.22;5115790;28;20189;-75
2022/06/07 03:32:31;;;;;;;10.00;7.85;;;;;;;18.94;100.00;101122.13;5116520;28;20106;-76
2022/06/07 03:35:17;;;;;;;10.65;8.07;;;;;;;19.00;100.00;101125.34;5116493;28;20050;-76
2022/06/07 03:38:03;;;;;;;12.63;8.38;;;;;;;18.49;100.00;101126.81;5115743;28;20015;-76
2022/06/07 03:40:49;;;;;;;11.23;8.95;;;;;;;18.81;100.00;101118.31;5126420;28;20023;-76
2022/06/07 03:43:36;;;;;;;10.82;8.98;;;;;;;18.73;100.00;101118.63;5116653;28;20031;-77
2022/06/07 03:46:27;;;;;;;12.15;8.40;;;;;;;18.98;100.00;101126.38;5116362;28;20027;-76
2022/06/07 03:49:14;;;;;;;17.15;9.27;;;;;;;19.01;100.00;101124.41;5116378;28;20085;-76
2022/06/07 03:51:59;;;;;;;14.07;8.80;;;;;;;19.15;100.00;101135.28;5101539;28;20038;-77
2022/06/07 03:54:45;;;;;;;12.07;9.27;;;;;;;18.26;100.00;101133.06;5115536;28;20081;-76
2022/06/07 03:57:31;;;;;;;11.90;9.68;;;;;;;18.75;100.00;101137.16;5115547;28;20396;-75
2022/06/07 04:00:17;;;;;;;11.93;9.02;;;;;;;18.66;100.00;101130.44;5113944;28;20031;-75
2022/06/07 04:03:05;;;;;;;13.40;9.52;;;;;;;19.00;100.00;101145.72;5115624;28;20043;-74
2022/06/07 04:05:54;;;;;;;13.93;9.60;;;;;;;18.78;100.00;101143.16;5100085;28;20023;-76
2022/06/07 04:08:40;;;;;;;13.20;9.73;;;;;;;18.66;100.00;101138.41;5100699;28;20031;-76
2022/06/07 04:11:28;;;;;;;10.60;9.50;;;;;;;18.68;100.00;101143.63;5115080;28;20105;-75
2022/06/07 04:14:13;;;;;;;14.68;9.45;;;;;;;19.19;100.00;101134.22;5100861;28;20100;-76
2022/06/07 04:16:59;;;;;;;11.20;9.75;;;;;;;19.25;100.00;101134.91;5115034;28;20110;-77
2022/06/07 04:19:45;;;;;;;11.63;9.60;;;;;;;19.07;100.00;101137.44;5099992;28;20030;-76
2022/06/07 04:22:31;;;;;;;12.00;9.23;;;;;;;19.11;100.00;101140.81;5114731;28;20080;-76
2022/06/07 04:25:16;;;;;;;15.13;10.55;;;;;;;19.21;100.00;101136.81;5114852;28;20105;-78
2022/06/07 04:28:05;;;;;;;13.60;9.65;;;;;;;19.08;100.00;101133.84;5115986;28;20085;-76
2022/06/07 04:30:51;;;;;;;13.02;10.52;;;;;;;18.91;100.00;101130.22;5102541;28;20030;-76
2022/06/07 04:33:36;;;;;;;16.42;10.70;;;;;;;19.04;100.00;101132.25;5116037;28;20036;-76
2022/06/07 04:36:25;;;;;;;20.73;11.10;;;;;;;19.16;100.00;101133.47;5116487;28;20024;-77
2022/06/07 04:39:12;;;;;;;17.83;10.05;;;;;;;19.43;100.00;101137.56;5100701;28;20027;-75
2022/06/07 04:41:58;;;;;;;30.63;11.57;;;;;;;19.41;100.00;101144.72;5114816;28;20055;-76
2022/06/07 04:44:43;;;;;;;20.98;10.68;;;;;;;19.52;100.00;101137.09;5116020;28;20468;-76
2022/06/07 04:47:29;;;;;;;20.40;10.85;;;;;;;19.59;100.00;101143.00;5116196;28;20042;-75
2022/06/07 04:50:18;;;;;;;22.75;10.48;;;;;;;19.91;100.00;101148.50;5101233;28;20436;-76
2022/06/07 04:53:04;;;;;;;15.63;10.70;;;;;;;19.73;100.00;101141.41;5115402;28;20039;-77
2022/06/07 04:55:49;;;;;;;18.33;10.43;;;;;;;19.93;100.00;101143.09;5116456;28;20107;-77
2022/06/07 04:58:35;;;;;;;16.67;10.25;;;;;;;20.36;100.00;101148.91;5115073;28;20020;-76
2022/06/07 05:01:33;;;;;;;15.80;9.55;;;;;;;20.51;100.00;101148.13;5115854;28;20641;-76
2022/06/07 05:04:19;;;;;;;12.65;9.93;;;;;;;20.74;100.00;101145.09;5117487;28;20085;-77
2022/06/07 05:07:04;;;;;;;15.38;10.50;;;;;;;20.06;100.00;101154.88;5115791;28;20089;-75
2022/06/07 05:09:50;;;;;;;12.50;9.55;;;;;;;20.41;100.00;101157.50;5100740;28;20039;-76
2022/06/07 05:12:36;;;;;;;17.95;11.05;;;;;;;20.21;100.00;101154.97;5116339;28;20061;-75
2022/06/07 05:15:22;;;;;;;17.42;10.77;;;;;;;20.32;100.00;101162.44;5115297;28;20336;-76
2022/06/07 05:18:08;;;;;;;14.13;9.95;;;;;;;20.03;100.00;101166.50;5114842;28;20030;-76
2022/06/07 05:20:54;;;;;;;16.50;9.65;;;;;;;20.57;100.00;101165.59;5115301;28;20370;-76
2022/06/07 05:23:40;;;;;;;15.20;9.20;;;;;;;20.73;100.00;101170.03;5113940;28;20027;-76
2022/06/07 05:26:29;;;;;;;18.05;9.77;;;;;;;20.88;100.00;101163.91;5113941;28;20056;-76
2022/06/07 05:29:19;;;;;;;13.55;9.20;;;;;;;20.67;100.00;101164.16;5114477;28;20032;-76
2022/06/07 05:32:06;;;;;;;13.23;9.95;;;;;;;21.02;100.00;101174.72;5115545;28;20028;-77
2022/06/07 05:34:51;;;;;;;12.18;9.70;;;;;;;21.17;100.00;101171.25;5099675;28;20028;-76
2022/06/07 05:37:37;;;;;;;13.00;8.98;;;;;;;21.05;100.00;101168.38;5100671;28;20020;-76
2022/06/07 05:40:23;;;;;;;13.68;9.15;;;;;;;21.13;100.00;101171.50;5104183;28;20031;-77
2022/06/07 05:43:12;;;;;;;12.55;8.30;;;;;;;21.37;100.00;101176.34;5118819;28;20024;-76
2022/06/07 05:45:59;;;;;;;9.50;8.23;;;;;;;21.59;100.00;101173.38;5120021;28;20359;-75
2022/06/07 05:48:45;;;;;;;9.95;8.30;;;;;;;21.69;100.00;101170.09;5119508;28;20027;-75
2022/06/07 05:51:31;;;;;;;11.35;8.73;;;;;;;21.43;100.00;101176.03;5119314;28;20035;-76
2022/06/07 05:54:17;;;;;;;11.73;8.15;;;;;;;21.59;100.00;101168.91;5102937;28;20031;-76
2022/06/07 05:57:04;;;;;;;10.57;8.55;;;;;;;22.01;100.00;101166.50;5120572;28;20159;-77
2022/06/07 05:59:50;;;;;;;12.10;8.77;;;;;;;21.58;100.00;101166.31;5103024;28;20106;-76
2022/06/07 06:02:36;;;;;;;11.18;8.80;;;;;;;21.76;100.00;101173.31;5118384;28;20074;-77
2022/06/07 06:05:22;;;;;;;9.52;8.48;;;;;;;21.89;100.00;101171.66;5118322;28;20038;-75
2022/06/07 06:11:16;;;;;;;10.75;8.25;;;;;;;22.10;100.00;101165.97;5119635;28;20035;-75
2022/06/07 06:14:02;;;;;;;12.82;9.15;;;;;;;21.67;100.00;101164.00;5117808;28;20024;-75
2022/06/07 06:16:48;;;;;;;14.57;9.85;;;;;;;22.43;100.00;101155.16;5117833;28;20024;-76
2022/06/07 06:19:35;;;;;;;15.32;9.30;;;;;;;22.60;100.00;101160.38;5118422;28;20031;-76
2022/06/07 06:22:21;;;;;;;11.95;9.77;;;;;;;22.47;100.00;101149.53;5104797;28;20088;-75
2022/06/07 06:25:08;;;;;;;15.13;9.50;;;;;;;22.75;100.00;101154.13;5118361;28;20055;-76
2022/06/07 06:27:54;;;;;;;11.82;8.77;;;;;;;22.54;100.00;101147.38;5103326;28;20059;-76
2022/06/07 06:30:44;;;;;;;11.95;8.93;;;;;;;22.75;100.00;101149.59;5120435;28;20035;-77
2022/06/07 06:33:30;;;;;;;12.23;8.80;;;;;;;22.69;100.00;101143.78;5120270;28;20470;-75
2022/06/07 06:36:19;;;;;;;11.43;7.93;;;;;;;22.61;100.00;101143.38;5103573;28;20384;-76
2022/06/07 06:39:06;;;;;;;9.48;7.78;;;;;;;22.75;100.00;101144.25;5118758;28;20051;-76
2022/06/07 06:41:51;;;;;;;17.38;7.65;;;;;;;22.91;100.00;101141.53;5116128;28;20023;-77
2022/06/07 06:44:37;;;;;;;12.32;8.27;;;;;;;23.02;100.00;101149.72;5103045;28;20479;-75
2022/06/07 06:47:23;;;;;;;10.68;7.53;;;;;;;23.32;100.00;101150.53;5102041;28;20035;-76
2022/06/07 06:50:09;;;;;;;12.57;6.68;;;;;;;23.57;100.00;101139.13;5103833;28;20050;-76
2022/06/07 06:52:55;;;;;;;9.70;5.95;;;;;;;23.56;100.00;101132.06;5116976;28;20056;-75
2022/06/07 06:55:43;;;;;;;11.52;6.25;;;;;;;23.39;100.00;101135.84;5103705;28;20413;-76
2022/06/07 06:58:30;;;;;;;8.70;6.20;;;;;;;23.78;100.00;101132.41;5117874;28;20088;-76
2022/06/07 07:01:19;;;;;;;6.65;5.90;;;;;;;23.74;100.00;101139.75;5118171;28;20387;-77
2022/06/07 07:04:08;;;;;;;9.82;5.72;;;;;;;23.74;100.00;101128.22;5119147;28;20114;-76
2022/06/07 07:06:54;;;;;;;8.43;5.65;;;;;;;23.93;100.00;101132.28;5102011;28;20019;-75
2022/06/07 07:09:40;;;;;;;12.27;6.20;;;;;;;24.27;100.00;101131.75;5103651;28;20096;-76
2022/06/07 07:12:26;;;;;;;12.25;5.80;;;;;;;24.51;100.00;101126.56;5117774;28;20425;-76
2022/06/07 07:15:15;;;;;;;9.82;5.55;;;;;;;24.23;100.00;101121.34;5118549;28;20023;-76
2022/06/07 07:18:00;;;;;;;7.13;5.15;;;;;;;24.26;100.00;101122.00;5102347;28;20031;-76
2022/06/07 07:20:46;;;;;;;6.47;4.95;;;;;;;24.59;100.00;101130.41;5103161;28;20042;-76
2022/06/07 07:23:33;;;;;;;7.85;4.97;;;;;;;24.62;100.00;101116.84;5117416;28;20035;-76
2022/06/07 07:26:26;;;;;;;6.63;4.97;;;;;;;24.78;100.00;101128.22;5101404;28;20043;-75
2022/06/07 07:29:15;;;;;;;5.65;4.50;;;;;;;25.31;100.00;101127.16;5118258;28;20405;-77
2022/06/07 07:32:06;;;;;;;6.70;4.90;;;;;;;25.44;100.00;101130.66;5118559;28;20513;-77
2022/06/07 07:34:52;;;;;;;4.93;4.38;;;;;;;25.29;98.93;101119.22;5117952;28;20024;-77
2022/06/07 07:37:38;;;;;;;6.13;4.45;;;;;;;26.27;94.53;101120.78;5117837;28;20372;-76
2022/06/07 07:40:24;;;;;;;6.53;4.75;;;;;;;25.90;92.29;101120.94;5104500;28;20028;-76
2022/06/07 07:43:10;;;;;;;4.50;4.10;;;;;;;25.60;92.43;101113.31;5117000;28;20024;-76
2022/06/07 07:45:56;;;;;;;6.80;4.22;;;;;;;26.50;89.09;101110.97;5116782;28;20039;-75
2022/06/07 07:48:43;;;;;;;7.53;4.07;;;;;;;26.50;88.30;101111.84;5117162;28;20024;-76
2022/06/07 07:51:38;;;;;;;10.55;3.90;;;;;;;26.75;86.74;101110.78;5102792;28;20092;-75
2022/06/07 07:54:24;;;;;;;7.20;4.28;;;;;;;26.98;81.63;101102.66;5102872;28;20063;-76
2022/06/07 07:57:10;;;;;;;6.35;4.00;;;;;;;26.99;83.02;101106.19;5102383;28;20020;-76
2022/06/07 07:59:56;;;;;;;6.13;3.95;;;;;;;26.98;83.12;101096.41;5118063;28;20020;-76
2022/06/07 08:02:42;;;;;;;7.15;4.15;;;;;;;27.06;80.25;101096.66;5102811;28;20098;-76
2022/06/07 08:05:31;;;;;;;6.45;3.58;;;;;;;26.98;81.48;101091.91;5116733;28;20045;-76
2022/06/07 08:08:17;;;;;;;7.68;3.70;;;;;;;26.75;81.83;101100.03;5117304;28;20038;-76
2022/06/07 08:11:03;;;;;;;4.10;3.70;;;;;;;26.64;79.89;101084.75;5118096;28;20492;-75
2022/06/07 08:13:49;;;;;;;12.05;4.43;;;;;;;27.48;81.49;101085.13;5102703;28;20023;-76
2022/06/07 08:16:36;;;;;;;5.13;3.30;;;;;;;27.68;75.47;101087.06;5117801;28;20019;-76
2022/06/07 08:19:21;;;;;;;10.43;3.78;;;;;;;28.02;75.05;101074.38;5116833;28;20024;-76
2022/06/07 08:22:09;;;;;;;7.18;3.90;;;;;;;28.12;74.26;101084.22;5117678;28;20131;-76
2022/06/07 08:24:55;;;;;;;3.85;3.42;;;;;;;28.16;71.61;101083.00;5117219;28;20047;-76
2022/06/07 08:27:44;;;;;;;5.38;3.65;;;;;;;27.40;76.00;101085.78;5117270;28;20024;-75
2022/06/07 08:30:30;;;;;;;4.53;3.78;;;;;;;27.52;76.14;101076.69;5103174;28;20054;-76
2022/06/07 08:39:25;;;;;;;12.02;7.15;;;;;;;27.95;75.15;101073.16;5119049;28;20020;-76
2022/06/07 08:42:17;;;;;;;7.45;5.47;;;;;;;27.74;73.99;101065.00;5101761;28;20024;-76
2022/06/07 08:45:14;;;;;;;8.35;4.03;;;;;;;27.74;74.48;101064.16;5103520;28;20031;-76
2022/06/07 08:48:24;;;;;;;5.50;3.75;;;;;;;27.58;72.28;101065.41;5116902;28;20023;-76
2022/06/07 08:51:28;;;;;;;7.00;4.10;;;;;;;28.00;73.98;101055.63;5117349;28;20099;-76
2022/06/07 08:54:19;;;;;;;6.97;4.13;;;;;;;28.77;72.43;101063.28;5102650;28;20024;-76
2022/06/07 08:57:29;;;;;;;10.43;4.72;;;;;;;28.76;68.77;101066.97;5104187;28;20028;-77
2022/06/07 09:00:20;;;;;;;5.50;3.70;;;;;;;28.65;68.86;101061.66;5101707;28;20084;-76
2022/06/07 09:03:54;;;;;;;4.70;4.07;;;;;;;28.97;67.97;101056.97;5117855;28;20069;-77
2022/06/07 09:06:52;;;;;;;6.53;3.85;;;;;;;29.12;61.52;101047.56;5109367;28;20046;-77
2022/06/07 09:13:15;;;;;;;8.05;4.00;;;;;;;28.79;62.21;101046.97;5117652;28;20020;-77
2022/06/07 09:16:06;;;;;;;6.28;3.78;;;;;;;28.78;56.43;101047.97;5118020;28;20102;-77
2022/06/07 09:18:52;;;;;;;4.45;2.80;;;;;;;28.38;58.16;101044.28;5119875;28;20016;-76
2022/06/07 09:21:44;;;;;;;6.40;3.10;;;;;;;28.62;53.80;101036.81;5120192;28;20092;-76
2022/06/07 09:24:42;;;;;;;16.27;3.63;;;;;;;29.29;55.30;101032.56;5104373;28;20063;-76
2022/06/07 09:27:33;;;;;;;10.48;4.50;;;;;;;29.05;54.87;101035.59;5105790;28;20058;-76
2022/06/07 09:30:25;;;;;;;5.43;3.30;;;;;;;29.07;52.67;101036.34;5105550;28;20417;-76
2022/06/07 09:33:24;;;;;;;7.85;3.10;;;;;;;29.07;51.59;101033.63;5122581;28;20082;-76
2022/06/07 09:36:32;;;;;;;6.93;2.92;;;;;;;29.37;52.97;101024.63;5120648;28;20024;-76
2022/06/07 09:39:28;;;;;;;6.13;3.58;;;;;;;29.21;52.50;101014.34;5107252;28;20046;-77
2022/06/07 09:42:25;;;;;;;6.47;2.45;;;;;;;29.17;49.07;101012.09;5122530;28;20132;-77
2022/06/07 09:45:14;;;;;;;5.07;2.70;;;;;;;29.19;47.38;101015.47;5121517;28;20054;-76
2022/06/07 09:48:27;;;;;;;7.07;2.20;;;;;;;28.62;48.20;101005.31;5121594;28;20027;-76
2022/06/07 09:51:19;;;;;;;2.92;2.28;;;;;;;28.91;51.99;101000.88;5122735;28;20347;-76
2022/06/07 09:54:20;;;;;;;16.00;2.85;;;;;;;28.85;51.44;101006.81;5119920;28;20030;-76
2022/06/07 09:57:43;;;;;;;5.78;2.42;;;;;;;27.69;54.06;101002.63;5106123;28;20031;-75
2022/06/07 10:00:48;;;;;;;4.72;2.55;;;;;;;27.25;54.06;100992.81;5119763;28;20576;-76
2022/06/07 10:03:59;;;;;;;5.85;2.65;;;;;;;27.58;54.67;100994.56;5120200;28;20027;-76
2022/06/07 10:06:56;;;;;;;3.85;3.33;;;;;;;27.05;55.26;100990.03;5104887;28;20059;-76
2022/06/07 10:10:11;;;;;;;5.90;3.10;;;;;;;28.55;53.60;100997.88;5105208;28;20032;-76
2022/06/07 10:13:48;;;;;;;3.53;2.30;;;;;;;28.60;52.15;100990.25;5122282;28;20435;-76
2022/06/07 10:16:48;;;;;;;3.92;2.10;;;;;;;27.74;50.95;100994.13;5058438;28;20035;-77
2022/06/07 10:19:45;;;;;;;4.25;2.28;;;;;;;27.89;52.41;100996.44;5120584;28;20055;-76
2022/06/07 10:23:09;;;;;;;4.78;2.55;;;;;;;28.30;54.91;100990.19;5120909;28;20452;-76
2022/06/07 10:25:59;;;;;;;7.95;2.85;;;;;;;27.94;57.16;100987.94;5104655;28;20480;-77
2022/06/07 10:29:07;;;;;;;4.00;2.50;;;;;;;28.56;54.92;100992.34;5118236;28;20038;-76
2022/06/07 10:32:18;;;;;;;3.13;2.80;;;;;;;28.65;53.79;100985.31;5105638;28;20030;-76
2022/06/07 10:35:30;;;;;;;5.95;3.30;;;;;;;28.40;55.65;100985.72;5106570;28;20031;-75
2022/06/07 10:38:21;;;;;;;3.97;2.90;;;;;;;28.41;57.19;100977.50;5096719;28;20032;-76
2022/06/07 10:41:12;;;;;;;5.82;2.70;;;;;;;27.69;57.38;100974.81;5120845;28;20034;-76
2022/06/07 10:44:13;;;;;;;5.05;2.80;;;;;;;28.74;57.29;100977.25;5119763;28;20051;-76
2022/06/07 10:47:27;;;;;;;5.53;2.72;;;;;;;28.98;54.05;100969.69;5120454;28;20096;-77
2022/06/07 10:50:45;;;;;;;3.25;2.78;;;;;;;28.78;54.06;100973.28;5105577;28;20028;-77
2022/06/07 10:53:38;;;;;;;20.90;3.65;;;;;;;28.73;54.87;100972.81;5019549;28;20046;-76
2022/06/07 10:56:29;;;;;;;4.25;2.60;;;;;;;28.82;55.41;100979.25;5107049;28;20035;-77
2022/06/07 10:59:21;;;;;;;9.80;6.55;;;;;;;28.74;53.00;100962.91;5120066;28;20034;-77
2022/06/07 11:02:38;;;;;;;18.20;5.57;;;;;;;29.78;53.16;100965.81;5105986;28;20084;-76
2022/06/07 11:12:16;;;;;;;7.68;2.97;;;;;;;27.90;52.40;100963.13;5120429;28;20024;-75
2022/06/07 11:15:28;;;;;;;4.20;2.30;;;;;;;27.68;52.30;100947.03;5108653;28;20027;-76
2022/06/07 11:18:21;;;;;;;9.07;2.75;;;;;;;27.91;55.25;100945.97;5106581;28;20015;-76
2022/06/07 11:21:08;;;;;;;2.97;2.45;;;;;;;28.54;53.80;100939.53;5132637;28;20024;-76
2022/06/07 11:24:05;;;;;;;2.88;2.53;;;;;;;28.46;52.41;100937.53;5131932;28;20038;-75
2022/06/07 11:26:51;;;;;;;4.22;2.63;;;;;;;29.26;52.09;100936.53;5106008;28;20046;-76
2022/06/07 11:29:36;;;;;;;4.55;2.78;;;;;;;28.89;54.18;100930.00;5120418;28;20106;-75
2022/06/07 11:32:42;;;;;;;4.65;2.55;;;;;;;29.57;50.86;100929.16;5123924;28;20083;-76
2022/06/07 11:35:44;;;;;;;4.63;2.45;;;;;;;29.10;49.31;100927.25;5126367;28;20027;-76
2022/06/07 11:38:32;;;;;;;3.75;2.40;;;;;;;28.99;49.30;100917.41;5128823;28;20035;-74
2022/06/07 11:41:40;;;;;;;4.78;2.60;;;;;;;29.64;48.77;100922.19;5121847;28;20043;-76
2022/06/07 11:44:34;;;;;;;4.47;2.63;;;;;;;28.99;48.99;100917.41;5122072;28;20027;-76
2022/06/07 11:47:24;;;;;;;5.65;2.75;;;;;;;29.11;50.43;100913.63;5113788;28;20030;-76
2022/06/07 11:50:32;;;;;;;3.80;2.47;;;;;;;29.32;49.57;100908.94;5130658;28;20089;-76
2022/06/07 11:53:20;;;;;;;3.58;2.40;;;;;;;29.86;47.10;100895.72;5102829;28;20032;-78
2022/06/07 11:56:11;;;;;;;6.35;2.60;;;;;;;30.06;47.61;100905.47;5123741;28;20023;-77
2022/06/07 11:59:22;;;;;;;6.93;2.83;;;;;;;29.62;47.73;100900.72;5123155;28;20066;-76
2022/06/07 12:02:14;;;;;;;5.85;2.60;;;;;;;29.52;47.25;100894.47;5119896;28;20031;-77
2022/06/07 12:05:16;;;;;;;3.92;2.90;;;;;;;30.23;48.19;100893.09;5118089;28;20051;-76
2022/06/07 12:08:19;;;;;;;3.75;2.40;;;;;;;29.51;46.36;100892.75;5118048;28;20085;-75
2022/06/07 12:11:23;;;;;;;100.85;90.05;;;;;;;30.27;45.86;100886.41;5117480;28;20027;-74
2022/06/07 12:14:23;;;;;;;3.20;2.17;;;;;;;29.53;45.01;100888.06;5102661;28;20032;-75
2022/06/07 12:17:24;;;;;;;5.22;2.30;;;;;;;29.79;45.24;100881.09;5115882;28;20520;-76
2022/06/07 12:20:31;;;;;;;5.05;2.25;;;;;;;29.39;47.83;100890.34;5116055;28;20024;-75
2022/06/07 12:23:24;;;;;;;6.80;2.28;;;;;;;28.62;46.01;100888.47;5100294;28;20039;-75
2022/06/07 12:26:39;;;;;;;4.18;2.05;;;;;;;28.23;47.49;100891.97;5116343;28;20515;-76
2022/06/07 12:29:29;;;;;;;3.30;2.17;;;;;;;28.82;47.78;100883.00;5101439;28;20043;-77
2022/06/07 12:32:21;;;;;;;5.15;2.20;;;;;;;29.19;48.79;100892.19;5124701;28;20083;-75
2022/06/07 12:35:13;;;;;;;5.60;2.50;;;;;;;28.51;48.66;100878.66;5114628;28;20440;-76
2022/06/07 12:38:01;;;;;;;6.63;3.00;;;;;;;28.55;48.77;100890.00;5125154;28;20020;-76
2022/06/07 12:40:51;;;;;;;3.95;2.50;;;;;;;28.78;48.38;100878.03;5111827;28;20091;-75
2022/06/07 12:43:49;;;;;;;5.70;2.30;;;;;;;28.44;46.21;100879.34;5131279;28;20034;-75
2022/06/07 12:46:45;;;;;;;4.05;1.95;;;;;;;28.51;46.19;100881.34;5130467;28;20016;-75
2022/06/07 12:49:44;;;;;;;2.63;2.20;;;;;;;28.04;47.40;100879.25;5129146;28;20027;-75
2022/06/07 12:52:32;;;;;;;5.15;2.78;;;;;;;28.10;49.60;100884.13;5131512;28;20026;-75
2022/06/07 12:55:25;;;;;;;6.38;2.83;;;;;;;28.52;49.70;100869.56;5131207;28;20327;-77
2022/06/07 12:58:19;;;;;;;12.90;3.38;;;;;;;28.38;52.97;100874.47;5133278;28;20045;-75
2022/06/07 13:01:28;;;;;;;4.63;2.70;;;;;;;28.30;51.86;100871.59;5113063;28;20456;-75
2022/06/07 13:04:36;;;;;;;4.00;2.38;;;;;;;27.91;54.31;100875.94;5129772;28;20110;-74
2022/06/07 13:07:29;;;;;;;6.00;2.90;;;;;;;27.82;58.66;100882.13;5128531;28;20092;-76
2022/06/07 13:10:20;;;;;;;8.27;4.32;;;;;;;27.92;61.16;100879.50;5126537;28;20543;-74
2022/06/07 13:13:18;;;;;;;9.82;6.47;;;;;;;28.13;59.15;100874.91;5123533;28;20020;-75
2022/06/07 13:16:38;;;;;;;11.13;7.10;;;;;;;27.74;60.77;100881.91;5109943;28;20031;-75
2022/06/07 13:19:27;;;;;;;5.90;3.40;;;;;;;26.96;64.82;100875.09;5131288;28;20034;-74
2022/06/07 13:22:16;;;;;;;10.13;4.05;;;;;;;27.43;62.84;100874.72;5129629;28;20024;-74
2022/06/07 13:25:18;;;;;;;9.75;3.97;;;;;;;26.86;64.14;100879.53;5116252;28;20058;-77
2022/06/07 13:28:07;;;;;;;8.05;3.53;;;;;;;26.44;65.04;100874.97;5098731;28;20036;-76